createdAt,value
2019-01-28T00:00:58.879Z,-0.80
2019-01-28T00:03:29.485Z,-0.80
2019-01-28T00:05:59.804Z,-0.90
2019-01-28T00:08:30.264Z,-1.00
2019-01-28T00:11:00.777Z,-1.10
2019-01-28T00:13:31.292Z,-1.10
2019-01-28T00:18:31.529Z,-1.10
2019-01-28T00:21:02.152Z,-1.00
2019-01-28T00:23:32.685Z,-0.90
2019-01-28T00:28:32.621Z,-0.80
2019-01-28T00:31:03.083Z,-0.70
2019-01-28T00:33:33.470Z,-0.50
2019-01-28T00:36:03.996Z,-0.50
2019-01-28T00:38:34.501Z,-0.60
2019-01-28T00:41:05.246Z,-0.70
2019-01-28T00:43:35.763Z,-0.60
2019-01-28T00:46:06.381Z,-0.60
2019-01-28T00:48:36.885Z,-0.60
2019-01-28T00:51:07.407Z,-0.60
2019-01-28T00:53:37.904Z,-0.50
2019-01-28T00:56:08.431Z,-0.50
2019-01-28T00:58:38.891Z,-0.50
2019-01-28T01:01:09.630Z,-0.50
2019-01-28T01:03:40.127Z,-0.60
2019-01-28T01:06:10.645Z,-0.60
2019-01-28T01:08:41.221Z,-0.60
2019-01-28T01:11:11.844Z,-0.60
2019-01-28T01:13:42.419Z,-0.60
2019-01-28T01:16:13.002Z,-0.60
2019-01-28T01:18:43.410Z,-0.60
2019-01-28T01:23:43.533Z,-0.80
2019-01-28T01:28:43.776Z,-0.90
2019-01-28T01:31:14.229Z,-0.90
2019-01-28T01:33:44.665Z,-0.90
2019-01-28T01:36:15.262Z,-0.80
2019-01-28T01:38:45.789Z,-0.90
2019-01-28T01:41:16.372Z,-1.00
2019-01-28T01:43:46.772Z,-1.00
2019-01-28T01:46:17.085Z,-1.10
2019-01-28T01:48:47.468Z,-1.10
2019-01-28T01:51:17.846Z,-1.20
2019-01-28T01:53:48.375Z,-1.20
2019-01-28T01:56:18.826Z,-1.40
2019-01-28T01:58:49.272Z,-1.50
2019-01-28T02:01:19.735Z,-1.50
2019-01-28T02:03:50.191Z,-1.60
2019-01-28T02:06:20.629Z,-1.60
2019-01-28T02:08:51.114Z,-1.70
2019-01-28T02:11:21.577Z,-1.80
2019-01-28T02:13:52.061Z,-1.90
2019-01-28T02:16:22.597Z,-1.90
2019-01-28T02:18:53.020Z,-1.60
2019-01-28T02:23:53.357Z,-1.20
2019-01-28T02:26:23.720Z,-1.10
2019-01-28T02:28:54.317Z,-1.00
2019-01-28T02:33:54.557Z,-1.00
2019-01-28T02:36:25.048Z,-1.00
2019-01-28T02:38:55.789Z,-0.90
2019-01-28T02:41:26.157Z,-0.90
2019-01-28T02:43:56.598Z,-0.90
2019-01-28T02:46:27.218Z,-0.90
2019-01-28T02:48:57.699Z,-1.00
2019-01-28T02:51:28.203Z,-1.00
2019-01-28T02:53:58.659Z,-1.00
2019-01-28T02:56:29.140Z,-1.00
2019-01-28T02:58:59.540Z,-1.10
2019-01-28T03:01:30.105Z,-1.10
2019-01-28T03:04:00.625Z,-1.20
2019-01-28T03:06:31.178Z,-1.30
2019-01-28T03:09:01.624Z,-1.40
2019-01-28T03:11:32.973Z,-1.50
2019-01-28T03:14:03.402Z,-1.60
2019-01-28T03:16:33.982Z,-1.60
2019-01-28T03:19:04.586Z,-1.70
2019-01-28T03:21:35.150Z,-1.80
2019-01-28T03:24:05.646Z,-1.90
2019-01-28T03:29:05.910Z,-2.10
2019-01-28T03:31:36.151Z,-1.90
2019-01-28T03:34:06.729Z,-1.70
2019-01-28T03:36:37.287Z,-1.60
2019-01-28T03:39:08.753Z,-1.40
2019-01-28T03:41:39.733Z,-1.30
2019-01-28T03:44:10.094Z,-1.20
2019-01-28T03:46:40.542Z,-1.20
2019-01-28T03:49:11.134Z,-1.30
2019-01-28T03:51:41.710Z,-1.50
2019-01-28T03:54:12.225Z,-1.60
2019-01-28T03:56:42.751Z,-1.80
2019-01-28T03:59:13.220Z,-1.90
2019-01-28T04:01:43.672Z,-2.00
2019-01-28T04:04:14.176Z,-2.10
2019-01-28T04:06:44.770Z,-2.20
2019-01-28T04:09:15.376Z,-2.10
2019-01-28T04:11:45.788Z,-2.10
2019-01-28T04:14:16.146Z,-2.00
2019-01-28T04:16:46.657Z,-2.10
2019-01-28T04:19:17.178Z,-2.10
2019-01-28T04:21:47.637Z,-2.20
2019-01-28T04:24:18.129Z,-2.30
2019-01-28T04:26:48.380Z,-2.30
2019-01-28T04:29:18.713Z,-2.30
2019-01-28T04:31:49.130Z,-2.40
2019-01-28T04:34:19.533Z,-2.30
2019-01-28T04:36:50.073Z,-2.30
2019-01-28T04:39:20.521Z,-2.10
2019-01-28T04:41:51.145Z,-2.00
2019-01-28T04:44:21.468Z,-2.00
2019-01-28T04:46:51.885Z,-1.80
2019-01-28T04:49:22.292Z,-1.80
2019-01-28T04:51:52.624Z,-1.80
2019-01-28T04:54:23.042Z,-1.70
2019-01-28T04:56:53.474Z,-1.70
2019-01-28T04:59:23.868Z,-1.70
2019-01-28T05:01:54.374Z,-1.70
2019-01-28T05:04:24.732Z,-1.60
2019-01-28T05:09:24.763Z,-1.50
2019-01-28T05:11:55.244Z,-1.50
2019-01-28T05:14:26.119Z,-1.50
2019-01-28T05:16:56.665Z,-1.50
2019-01-28T05:21:56.725Z,-1.50
2019-01-28T05:24:27.133Z,-1.40
2019-01-28T05:26:57.622Z,-1.40
2019-01-28T05:29:27.990Z,-1.40
2019-01-28T05:31:58.425Z,-1.40
2019-01-28T05:34:28.837Z,-1.40
2019-01-28T05:36:59.290Z,-1.30
2019-01-28T05:39:29.801Z,-1.30
2019-01-28T05:42:00.258Z,-1.30
2019-01-28T05:44:30.516Z,-1.20
2019-01-28T05:47:00.960Z,-1.20
2019-01-28T05:49:31.433Z,-1.20
2019-01-28T05:52:01.757Z,-1.20
2019-01-28T05:54:32.248Z,-1.10
2019-01-28T05:57:02.585Z,-1.10
2019-01-28T05:59:33.144Z,-1.20
2019-01-28T06:02:03.653Z,-1.20
2019-01-28T06:04:34.091Z,-1.20
2019-01-28T06:07:04.627Z,-1.20
2019-01-28T06:09:35.234Z,-1.30
2019-01-28T06:12:05.753Z,-1.30
2019-01-28T06:14:36.248Z,-1.40
2019-01-28T06:17:06.858Z,-1.30
2019-01-28T06:19:37.321Z,-1.40
2019-01-28T06:22:07.801Z,-1.40
2019-01-28T06:24:38.286Z,-1.50
2019-01-28T06:27:08.748Z,-1.60
2019-01-28T06:29:39.274Z,-1.70
2019-01-28T06:32:10.213Z,-1.80
2019-01-28T06:34:40.726Z,-1.80
2019-01-28T06:37:11.261Z,-1.80
2019-01-28T06:39:41.774Z,-1.80
2019-01-28T06:42:12.532Z,-1.80
2019-01-28T06:44:43.239Z,-1.60
2019-01-28T06:47:13.818Z,-1.50
2019-01-28T06:49:44.369Z,-1.30
2019-01-28T06:52:14.857Z,-1.10
2019-01-28T06:54:45.505Z,-1.00
2019-01-28T06:57:16.014Z,-0.80
2019-01-28T06:59:46.356Z,-0.70
2019-01-28T07:02:17.246Z,-0.70
2019-01-28T07:04:47.673Z,-0.60
2019-01-28T07:07:18.222Z,-0.50
2019-01-28T07:09:48.625Z,-0.50
2019-01-28T07:12:19.186Z,-0.50
2019-01-28T07:14:49.585Z,-0.40
2019-01-28T07:19:49.749Z,-0.30
2019-01-28T07:22:20.250Z,-0.40
2019-01-28T07:24:50.626Z,-0.30
2019-01-28T07:27:21.162Z,-0.20
2019-01-28T07:29:52.070Z,-0.10
2019-01-28T07:32:22.577Z,0.00
2019-01-28T07:34:52.865Z,0.10
2019-01-28T07:37:23.346Z,0.00
2019-01-28T07:39:53.816Z,0.00
2019-01-28T07:42:24.156Z,0.20
2019-01-28T07:44:54.766Z,0.20
2019-01-28T07:47:25.320Z,0.20
2019-01-28T07:52:25.395Z,0.50
2019-01-28T07:54:56.005Z,0.60
2019-01-28T07:59:56.413Z,0.80
2019-01-28T08:02:26.972Z,0.70
2019-01-28T08:04:57.328Z,0.80
2019-01-28T08:07:27.884Z,0.80
2019-01-28T08:09:58.548Z,0.80
2019-01-28T08:12:28.955Z,0.80
2019-01-28T08:14:59.276Z,1.00
2019-01-28T08:17:29.677Z,1.20
2019-01-28T08:19:59.982Z,1.20
2019-01-28T08:22:30.276Z,1.30
2019-01-28T08:25:00.605Z,1.40
2019-01-28T08:30:00.709Z,1.50
2019-01-28T08:32:31.181Z,1.50
2019-01-28T08:35:01.620Z,1.50
2019-01-28T08:42:24.869Z,1.50
2019-01-28T08:47:24.946Z,1.40
2019-01-28T08:49:55.168Z,1.40
2019-01-28T08:52:25.593Z,1.40
2019-01-28T08:54:55.788Z,1.40
2019-01-28T08:57:26.391Z,1.40
2019-01-28T08:59:56.871Z,1.40
2019-01-28T09:02:27.225Z,1.50
2019-01-28T09:04:57.800Z,1.50
2019-01-28T09:07:28.101Z,1.60
2019-01-28T09:09:58.589Z,1.70
2019-01-28T09:12:29.042Z,1.70
2019-01-28T09:14:59.342Z,1.80
2019-01-28T09:17:29.768Z,1.80
2019-01-28T09:20:00.326Z,1.90
2019-01-28T09:22:30.756Z,1.90
2019-01-28T09:25:01.099Z,2.00
2019-01-28T09:27:31.501Z,2.10
2019-01-28T09:30:01.994Z,2.00
2019-01-28T09:32:32.333Z,2.10
2019-01-28T09:35:02.618Z,2.30
2019-01-28T09:37:33.005Z,2.40
2019-01-28T09:40:03.561Z,2.50
2019-01-28T09:42:34.014Z,2.60
2019-01-28T09:45:04.668Z,2.60
2019-01-28T09:47:35.076Z,2.70
2019-01-28T09:50:06.433Z,2.80
2019-01-28T09:52:37.055Z,2.60
2019-01-28T09:55:08.671Z,2.50
2019-01-28T09:57:39.104Z,2.50
2019-01-28T10:02:42.757Z,2.30
2019-01-28T10:05:13.283Z,2.40
2019-01-28T10:07:43.783Z,2.50
2019-01-28T10:10:15.696Z,2.50
2019-01-28T10:12:45.949Z,2.50
2019-01-28T10:15:18.006Z,2.50
2019-01-28T10:17:48.830Z,2.80
2019-01-28T10:20:22.091Z,2.80
2019-01-28T10:22:52.516Z,2.80
2019-01-28T10:25:23.111Z,2.80
2019-01-28T10:27:53.541Z,2.70
2019-01-28T10:30:28.130Z,2.70
2019-01-28T10:32:58.523Z,2.80
2019-01-28T10:35:29.858Z,2.90
2019-01-28T10:38:00.276Z,2.90
2019-01-28T10:40:32.221Z,2.90
2019-01-28T10:43:02.657Z,2.80
2019-01-28T10:45:33.038Z,2.90
2019-01-28T10:48:03.383Z,2.90
2019-01-28T10:50:33.889Z,3.00
2019-01-28T10:53:04.475Z,3.10
2019-01-28T10:55:34.877Z,3.10
2019-01-28T11:00:37.353Z,3.30
2019-01-28T11:03:08.966Z,3.20
2019-01-28T11:05:39.277Z,3.30
2019-01-28T11:08:09.859Z,3.40
2019-01-28T11:10:40.474Z,3.40
2019-01-28T11:13:10.759Z,3.50
2019-01-28T11:15:41.347Z,3.50
2019-01-28T11:18:17.171Z,3.30
2019-01-28T11:20:47.729Z,3.30
2019-01-28T11:23:18.039Z,3.20
2019-01-28T11:25:48.394Z,3.20
2019-01-28T11:28:18.851Z,3.30
2019-01-28T11:30:54.509Z,3.40
2019-01-28T11:33:24.943Z,3.40
2019-01-28T11:35:55.682Z,3.50
2019-01-28T11:38:26.321Z,3.50
2019-01-28T11:40:56.833Z,3.60
2019-01-28T11:43:27.127Z,3.70
2019-01-28T11:46:00.154Z,3.80
2019-01-28T11:48:32.661Z,3.90
2019-01-28T11:51:01.073Z,3.80
2019-01-28T11:53:31.341Z,3.90
2019-01-28T11:56:01.805Z,4.00
2019-01-28T11:58:32.136Z,4.00
2019-01-28T12:01:11.390Z,4.10
2019-01-28T12:03:41.768Z,4.20
2019-01-28T12:06:12.181Z,3.90
2019-01-28T12:08:42.616Z,4.00
2019-01-28T12:11:13.065Z,4.00
2019-01-28T12:13:43.605Z,3.90
2019-01-28T12:16:14.069Z,4.00
2019-01-28T12:18:44.462Z,4.00
2019-01-28T12:23:44.532Z,4.10
2019-01-28T12:26:14.837Z,4.00
2019-01-28T12:28:45.241Z,4.00
2019-01-28T12:31:49.757Z,3.90
2019-01-28T12:34:23.552Z,3.90
2019-01-28T12:36:53.892Z,3.80
2019-01-28T12:39:24.150Z,3.70
2019-01-28T12:41:54.406Z,3.70
2019-01-28T12:44:24.834Z,3.60
2019-01-28T12:46:55.278Z,3.70
2019-01-28T12:49:25.769Z,3.70
2019-01-28T12:51:56.098Z,3.80
2019-01-28T12:54:26.294Z,4.00
2019-01-28T12:56:56.717Z,3.90
2019-01-28T12:59:27.025Z,4.00
2019-01-28T13:01:57.382Z,4.10
2019-01-28T13:04:27.712Z,4.10
2019-01-28T13:06:58.928Z,4.20
2019-01-28T13:09:29.371Z,4.40
2019-01-28T13:11:59.757Z,4.40
2019-01-28T13:14:30.222Z,4.40
2019-01-28T13:17:00.648Z,4.40
2019-01-28T13:19:31.023Z,4.40
2019-01-28T13:22:01.504Z,4.40
2019-01-28T13:24:31.793Z,4.30
2019-01-28T13:27:03.288Z,4.30
2019-01-28T13:29:33.645Z,4.30
2019-01-28T13:32:04.116Z,4.20
2019-01-28T13:37:03.962Z,4.20
2019-01-28T13:39:34.297Z,4.20
2019-01-28T13:42:04.889Z,4.10
2019-01-28T13:44:35.313Z,4.10
2019-01-28T13:49:38.377Z,4.10
2019-01-28T13:52:06.004Z,4.10
2019-01-28T13:54:36.357Z,4.10
2019-01-28T13:57:06.928Z,4.20
2019-01-28T13:59:37.353Z,4.30
2019-01-28T14:02:07.915Z,4.30
2019-01-28T14:04:38.208Z,4.20
2019-01-28T14:07:08.973Z,4.20
2019-01-28T14:09:39.316Z,4.20
2019-01-28T14:12:09.923Z,4.10
2019-01-28T14:14:40.354Z,4.10
2019-01-28T14:17:10.902Z,4.00
2019-01-28T14:19:46.205Z,3.90
2019-01-28T14:22:11.505Z,3.70
2019-01-28T14:24:41.933Z,3.50
2019-01-28T14:27:12.287Z,3.40
2019-01-28T14:29:42.753Z,3.40
2019-01-28T14:32:13.366Z,3.50
2019-01-28T14:34:43.875Z,3.60
2019-01-28T14:37:14.294Z,3.60
2019-01-28T14:39:44.794Z,3.60
2019-01-28T14:42:15.218Z,3.50
2019-01-28T14:44:45.573Z,3.40
2019-01-28T14:47:16.105Z,3.50
2019-01-28T14:49:54.145Z,3.40
2019-01-28T14:52:16.829Z,3.30
2019-01-28T14:54:47.457Z,3.30
2019-01-28T14:57:17.986Z,3.30
2019-01-28T15:02:17.789Z,3.10
2019-01-28T15:04:48.007Z,2.90
2019-01-28T15:07:18.554Z,2.80
2019-01-28T15:09:48.968Z,2.80
2019-01-28T15:12:19.445Z,2.60
2019-01-28T15:14:49.841Z,2.60
2019-01-28T15:17:20.266Z,2.60
2019-01-28T15:19:50.940Z,2.60
2019-01-28T15:22:21.256Z,2.50
2019-01-28T15:24:51.686Z,2.50
2019-01-28T15:27:22.005Z,2.50
2019-01-28T15:29:52.401Z,2.40
2019-01-28T15:34:52.499Z,2.50
2019-01-28T15:37:22.807Z,2.50
2019-01-28T15:39:53.085Z,2.50
2019-01-28T15:42:23.437Z,2.50
2019-01-28T15:44:53.673Z,2.40
2019-01-28T15:47:24.803Z,2.40
2019-01-28T15:49:55.040Z,2.50
2019-01-28T15:52:25.346Z,2.40
2019-01-28T15:54:55.672Z,2.40
2019-01-28T15:57:26.086Z,2.40
2019-01-28T15:59:56.500Z,2.30
2019-01-28T16:02:26.960Z,2.20
2019-01-28T16:04:57.189Z,2.20
2019-01-28T16:07:27.509Z,2.20
2019-01-28T16:09:57.819Z,2.20
2019-01-28T16:12:28.205Z,2.10
2019-01-28T16:14:58.588Z,2.10
2019-01-28T16:17:28.977Z,2.00
2019-01-28T16:19:59.696Z,1.90
2019-01-28T16:24:59.669Z,1.70
2019-01-28T16:27:30.010Z,1.70
2019-01-28T16:30:00.377Z,1.60
2019-01-28T16:32:30.870Z,1.60
2019-01-28T16:35:01.366Z,1.50
2019-01-28T16:37:31.794Z,1.50
2019-01-28T16:40:02.134Z,1.50
2019-01-28T16:42:32.461Z,1.50
2019-01-28T16:45:02.782Z,1.50
2019-01-28T16:47:33.161Z,1.60
2019-01-28T16:50:03.665Z,1.60
2019-01-28T16:52:33.908Z,1.60
2019-01-28T16:55:05.116Z,1.60
2019-01-28T16:57:35.614Z,1.60
2019-01-28T17:00:08.057Z,1.60
2019-01-28T17:02:38.419Z,1.60
2019-01-28T17:05:10.194Z,1.60
2019-01-28T17:07:40.660Z,1.60
2019-01-28T17:10:11.298Z,1.60
2019-01-28T17:12:41.993Z,1.60
2019-01-28T17:15:13.489Z,1.50
2019-01-28T17:17:43.808Z,1.40
2019-01-28T17:20:17.344Z,1.40
2019-01-28T17:22:47.696Z,1.50
2019-01-28T17:25:20.854Z,1.50
2019-01-28T17:27:51.255Z,1.40
2019-01-28T17:30:29.597Z,1.40
2019-01-28T17:33:00.119Z,1.40
2019-01-28T17:35:30.698Z,1.40
2019-01-28T17:38:01.398Z,1.30
2019-01-28T17:40:32.033Z,1.40
2019-01-28T17:43:02.540Z,1.40
2019-01-28T17:45:32.928Z,1.30
2019-01-28T17:48:03.341Z,1.30
2019-01-28T17:50:33.855Z,1.30
2019-01-28T17:53:04.290Z,1.40
2019-01-28T17:55:34.689Z,1.40
2019-01-28T17:58:05.513Z,1.40
2019-01-28T18:00:39.908Z,1.40
2019-01-28T18:05:39.974Z,1.30
2019-01-28T18:08:10.876Z,1.30
2019-01-28T18:10:41.402Z,1.20
2019-01-28T18:13:11.916Z,1.10
2019-01-28T18:15:42.432Z,0.90
2019-01-28T18:18:12.916Z,0.70
2019-01-28T18:20:51.266Z,0.40
2019-01-28T18:23:46.946Z,0.10
2019-01-28T18:26:17.496Z,-0.10
2019-01-28T18:28:48.050Z,-0.40
2019-01-28T18:33:47.992Z,-0.50
2019-01-28T18:36:18.542Z,-0.50
2019-01-28T18:38:51.838Z,-0.60
2019-01-28T18:41:22.261Z,-0.60
2019-01-28T18:46:22.115Z,-0.70
2019-01-28T18:48:52.784Z,-0.80
2019-01-28T18:51:23.070Z,-0.90
2019-01-28T18:53:53.534Z,-1.20
2019-01-28T18:58:09.089Z,-1.40
2019-01-28T19:00:39.620Z,-1.50
2019-01-28T19:03:10.044Z,-1.60
2019-01-28T19:06:18.977Z,-1.60
2019-01-28T19:09:24.849Z,-1.60
2019-01-28T19:11:59.413Z,-1.60
2019-01-28T19:14:37.869Z,-1.60
2019-01-28T19:22:11.133Z,-1.70
2019-01-28T19:24:41.598Z,-1.70
2019-01-28T19:27:12.061Z,-2.00
2019-01-28T19:29:42.524Z,-2.10
2019-01-28T19:32:13.118Z,-2.10
2019-01-28T19:34:43.513Z,-2.10
2019-01-28T19:39:43.717Z,-1.80
2019-01-28T19:42:14.308Z,-1.70
2019-01-28T19:44:44.633Z,-1.70
2019-01-28T19:47:15.152Z,-1.80
2019-01-28T19:49:45.532Z,-1.80
2019-01-28T19:52:24.978Z,-1.70
2019-01-28T19:54:55.366Z,-1.70
2019-01-28T19:57:25.893Z,-1.70
2019-01-28T19:59:56.353Z,-1.70
2019-01-28T20:02:26.854Z,-1.70
2019-01-28T20:04:57.405Z,-1.70
2019-01-28T20:07:27.797Z,-1.80
2019-01-28T20:09:58.134Z,-1.90
2019-01-28T20:12:28.933Z,-2.10
2019-01-28T20:15:00.436Z,-2.20
2019-01-28T20:17:30.755Z,-2.30
2019-01-28T20:20:01.226Z,-2.50
2019-01-28T20:22:31.547Z,-2.50
2019-01-28T20:25:01.987Z,-2.40
2019-01-28T20:27:32.666Z,-2.40
2019-01-28T20:30:03.118Z,-2.30
2019-01-28T20:32:33.486Z,-2.20
2019-01-28T20:35:04.098Z,-2.10
2019-01-28T20:37:34.566Z,-2.10
2019-01-28T20:40:06.172Z,-2.10
2019-01-28T20:45:08.197Z,-2.10
2019-01-28T20:47:38.791Z,-2.10
2019-01-28T20:50:12.197Z,-2.10
2019-01-28T20:52:42.746Z,-2.10
2019-01-28T20:55:13.414Z,-2.10
2019-01-28T20:57:43.857Z,-2.10
2019-01-28T21:02:46.098Z,-1.70
2019-01-28T21:05:17.972Z,-1.70
2019-01-28T21:07:48.690Z,-1.70
2019-01-28T21:10:19.854Z,-1.80
2019-01-28T21:12:50.456Z,-1.80
2019-01-28T21:15:20.884Z,-1.70
2019-01-28T21:17:51.718Z,-1.70
2019-01-28T21:23:24.112Z,-1.60
2019-01-28T21:25:54.574Z,-1.60
2019-01-28T21:28:24.946Z,-1.50
2019-01-28T21:30:55.553Z,-1.40
2019-01-28T21:33:25.800Z,-1.40
2019-01-28T21:36:01.190Z,-1.30
2019-01-28T21:38:36.074Z,-1.30
2019-01-28T21:41:07.365Z,-1.20
2019-01-28T21:43:37.860Z,-1.20
2019-01-28T21:46:22.610Z,-1.10
2019-01-28T21:48:53.006Z,-1.20
2019-01-28T21:51:23.445Z,-1.20
2019-01-28T21:53:53.873Z,-1.10
2019-01-28T21:56:24.497Z,-1.00
2019-01-28T22:01:24.612Z,-0.80
2019-01-28T22:03:55.033Z,-0.80
2019-01-28T22:06:27.665Z,-0.70
2019-01-28T22:08:58.268Z,-0.70
2019-01-28T22:11:28.675Z,-0.80
2019-01-28T22:13:59.185Z,-0.70
2019-01-28T22:16:29.705Z,-0.70
2019-01-28T22:19:00.540Z,-0.70
2019-01-28T22:21:30.985Z,-0.70
2019-01-28T22:24:01.341Z,-0.70
2019-01-28T22:26:31.893Z,-0.70
2019-01-28T22:29:02.466Z,-0.60
2019-01-28T22:31:32.848Z,-0.60
2019-01-28T22:34:03.136Z,-0.50
2019-01-28T22:36:33.470Z,-0.40
2019-01-28T22:39:04.512Z,-0.30
2019-01-28T22:41:34.847Z,-0.20
2019-01-28T22:44:05.264Z,-0.20
2019-01-28T22:46:35.658Z,-0.10
2019-01-28T22:49:06.269Z,-0.10
2019-01-28T22:51:36.850Z,-0.10
2019-01-28T22:54:07.281Z,-0.10
2019-01-28T22:56:37.773Z,0.00
2019-01-28T22:59:08.322Z,0.00
2019-01-28T23:01:41.190Z,0.10
2019-01-28T23:04:10.005Z,0.10
2019-01-28T23:06:40.501Z,0.10
2019-01-28T23:09:11.807Z,0.20
2019-01-28T23:11:42.391Z,0.30
2019-01-28T23:14:12.874Z,0.40
2019-01-28T23:16:43.466Z,0.40
2019-01-28T23:19:13.657Z,0.50
2019-01-28T23:21:43.985Z,0.50
2019-01-28T23:24:14.363Z,0.50
2019-01-28T23:26:45.097Z,0.50
2019-01-28T23:29:15.382Z,0.50
2019-01-28T23:31:45.822Z,0.60
2019-01-28T23:34:16.347Z,0.60
2019-01-28T23:36:46.703Z,0.60
2019-01-28T23:39:17.110Z,0.60
2019-01-28T23:44:17.205Z,0.70
2019-01-28T23:46:47.545Z,0.70
2019-01-28T23:51:48.100Z,0.70
2019-01-28T23:54:18.541Z,0.70
2019-01-28T23:56:48.826Z,0.70
2019-01-28T23:59:19.347Z,0.70
